Time;durP1;ratioP1;P1;durP2;ratioP2;P2;SDS_P1;SDS_P2;PMS_P1;PMS_P2;Temp;Humidity;BMP_temperature;BMP_pressure;BME280_temperature;BME280_humidity;BME280_pressure;Samples;Min_cycle;Max_cycle;Signal;HPM_P1;HPM_P2
2021/06/06 00:00:24;;;;;;;;;6.50;5.75;;;;;;;;4989747;28;8851;-81
2021/06/06 00:02:53;;;;;;;;;5.75;5.75;;;;;;;;5001138;28;8899;-80
2021/06/06 00:05:21;;;;;;;;;5.00;5.00;;;;;;;;5003057;28;8914;-80
2021/06/06 00:07:48;;;;;;;;;6.00;5.25;;;;;;;;5004284;28;8872;-82
2021/06/06 00:10:16;;;;;;;;;6.00;6.00;;;;;;;;5002051;28;8884;-82
2021/06/06 00:12:43;;;;;;;;;5.50;5.50;;;;;;;;4999038;28;8888;-84
2021/06/06 00:15:13;;;;;;;;;9.50;6.00;;;;;;;;5001106;28;8910;-83
2021/06/06 00:17:40;;;;;;;;;5.50;5.50;;;;;;;;4995585;28;8883;-83
2021/06/06 00:20:11;;;;;;;;;8.50;6.50;;;;;;;;4999929;28;8852;-84
2021/06/06 00:22:39;;;;;;;;;6.00;6.00;;;;;;;;4994336;28;8851;-82
2021/06/06 00:25:09;;;;;;;;;5.75;5.75;;;;;;;;4989734;28;8884;-83
2021/06/06 00:27:36;;;;;;;;;8.00;8.00;;;;;;;;5002537;28;8886;-82
2021/06/06 00:30:04;;;;;;;;;6.25;6.25;;;;;;;;5000819;28;8905;-82
2021/06/06 00:32:31;;;;;;;;;12.33;10.00;;;;;;;;5002577;28;8852;-82
2021/06/06 00:34:58;;;;;;;;;6.00;6.00;;;;;;;;4999486;28;9917;-80
2021/06/06 00:37:26;;;;;;;;;9.00;7.00;;;;;;;;4997520;28;8883;-81
2021/06/06 00:39:54;;;;;;;;;6.00;6.00;;;;;;;;5001681;28;9640;-82
2021/06/06 00:42:22;;;;;;;;;6.00;6.00;;;;;;;;5002136;28;8962;-81
2021/06/06 00:44:50;;;;;;;;;6.00;6.00;;;;;;;;4988977;28;8860;-82
2021/06/06 00:47:17;;;;;;;;;8.00;8.00;;;;;;;;4993615;28;8888;-81
2021/06/06 00:49:45;;;;;;;;;5.33;5.33;;;;;;;;5002491;28;8959;-81
2021/06/06 00:52:13;;;;;;;;;5.00;5.00;;;;;;;;5001435;28;9001;-82
2021/06/06 00:54:44;;;;;;;;;8.00;8.00;;;;;;;;5000025;28;9703;-81
2021/06/06 00:57:14;;;;;;;;;8.67;8.67;;;;;;;;5006721;28;9150;-81
2021/06/06 00:59:45;;;;;;;;;7.33;7.33;;;;;;;;5006931;28;8947;-81
2021/06/06 01:02:13;;;;;;;;;10.00;5.67;;;;;;;;5004246;28;9053;-80
2021/06/06 01:04:41;;;;;;;;;6.00;6.00;;;;;;;;4998360;28;9109;-80
2021/06/06 01:07:08;;;;;;;;;7.67;7.67;;;;;;;;5003969;28;8967;-80
2021/06/06 01:09:36;;;;;;;;;7.67;7.00;;;;;;;;4992248;28;10057;-81
2021/06/06 01:12:08;;;;;;;;;9.00;7.33;;;;;;;;5000976;28;9201;-82
2021/06/06 01:14:42;;;;;;;;;9.00;8.25;;;;;;;;4994172;28;9039;-81
2021/06/06 01:17:12;;;;;;;;;7.50;7.50;;;;;;;;5002319;28;8882;-81
2021/06/06 01:19:45;;;;;;;;;7.00;7.00;;;;;;;;4990152;28;8972;-81
2021/06/06 01:22:35;;;;;;;;;7.67;7.67;;;;;;;;5004391;28;8886;-81
2021/06/06 01:25:11;;;;;;;;;6.00;6.00;;;;;;;;4996637;28;8976;-82
2021/06/06 01:27:41;;;;;;;;;6.00;6.00;;;;;;;;5002098;28;8898;-80
2021/06/06 01:30:12;;;;;;;;;6.00;6.00;;;;;;;;5006068;28;9034;-82
2021/06/06 01:32:44;;;;;;;;;7.25;7.25;;;;;;;;5001598;28;8872;-80
2021/06/06 01:35:14;;;;;;;;;7.25;7.25;;;;;;;;5000372;28;9670;-81
2021/06/06 01:37:45;;;;;;;;;8.00;8.00;;;;;;;;5000819;28;9682;-82
2021/06/06 01:40:17;;;;;;;;;6.50;6.00;;;;;;;;5001728;28;8884;-81
2021/06/06 01:42:47;;;;;;;;;10.00;8.50;;;;;;;;5005253;28;8894;-81
2021/06/06 01:45:16;;;;;;;;;6.00;5.75;;;;;;;;5004058;28;8894;-82
2021/06/06 01:47:46;;;;;;;;;6.75;6.75;;;;;;;;4999358;28;8920;-79
2021/06/06 01:50:18;;;;;;;;;7.50;7.25;;;;;;;;4996574;28;8867;-82
2021/06/06 01:52:46;;;;;;;;;6.75;6.75;;;;;;;;5003029;28;8994;-79
2021/06/06 01:55:18;;;;;;;;;7.50;7.50;;;;;;;;4999662;28;8975;-81
2021/06/06 01:57:46;;;;;;;;;5.25;5.25;;;;;;;;5001352;28;8878;-80
2021/06/06 02:00:19;;;;;;;;;9.33;6.67;;;;;;;;4989811;28;8980;-80
2021/06/06 02:02:46;;;;;;;;;6.25;6.25;;;;;;;;5000324;28;8985;-81
2021/06/06 02:05:15;;;;;;;;;8.00;8.00;;;;;;;;5005038;28;8884;-81
2021/06/06 02:07:43;;;;;;;;;5.33;5.33;;;;;;;;4998487;28;9050;-80
2021/06/06 02:10:21;;;;;;;;;8.33;8.00;;;;;;;;4999704;28;9003;-83
2021/06/06 02:12:49;;;;;;;;;5.33;5.33;;;;;;;;5001761;28;9146;-81
2021/06/06 02:15:19;;;;;;;;;5.67;5.67;;;;;;;;4999951;28;9821;-76
2021/06/06 02:17:46;;;;;;;;;9.00;6.00;;;;;;;;4999860;28;9100;-81
2021/06/06 02:20:15;;;;;;;;;5.00;5.00;;;;;;;;5004943;28;9094;-83
2021/06/06 02:22:41;;;;;;;;;5.33;5.33;;;;;;;;4999743;28;9207;-83
2021/06/06 02:25:11;;;;;;;;;5.00;5.00;;;;;;;;4995447;28;9185;-80
2021/06/06 02:27:43;;;;;;;;;4.00;4.00;;;;;;;;5000812;28;9031;-81
2021/06/06 02:30:15;;;;;;;;;5.00;5.00;;;;;;;;5005568;28;9233;-84
2021/06/06 02:32:48;;;;;;;;;4.33;4.33;;;;;;;;5003521;28;9118;-83
2021/06/06 02:35:21;;;;;;;;;8.00;5.33;;;;;;;;4994412;28;9271;-81
2021/06/06 02:37:53;;;;;;;;;4.67;4.67;;;;;;;;5002234;28;9305;-83
2021/06/06 02:40:25;;;;;;;;;6.33;6.33;;;;;;;;4998369;28;9312;-82
2021/06/06 02:42:55;;;;;;;;;5.67;5.67;;;;;;;;5004706;28;9363;-81
2021/06/06 02:45:26;;;;;;;;;5.00;5.00;;;;;;;;5003978;28;9293;-82
2021/06/06 02:47:58;;;;;;;;;5.00;5.00;;;;;;;;5003487;28;9488;-81
2021/06/06 02:50:27;;;;;;;;;5.00;5.00;;;;;;;;4995740;28;9522;-82
2021/06/06 02:52:57;;;;;;;;;7.00;4.75;;;;;;;;4998481;28;9346;-82
2021/06/06 02:55:27;;;;;;;;;8.25;7.25;;;;;;;;4994086;28;9491;-83
2021/06/06 02:58:01;;;;;;;;;8.00;8.00;;;;;;;;4999616;28;9683;-80
2021/06/06 03:00:31;;;;;;;;;8.00;8.00;;;;;;;;5003068;28;9627;-82
2021/06/06 03:03:02;;;;;;;;;5.25;5.25;;;;;;;;4997029;28;9612;-83
2021/06/06 03:05:31;;;;;;;;;7.75;7.75;;;;;;;;5001430;28;9617;-81
2021/06/06 03:08:01;;;;;;;;;8.00;7.00;;;;;;;;5000577;28;9601;-80
2021/06/06 03:10:29;;;;;;;;;9.00;9.00;;;;;;;;4998745;28;9524;-81
2021/06/06 03:13:01;;;;;;;;;7.25;7.25;;;;;;;;5002993;28;10394;-81
2021/06/06 03:15:30;;;;;;;;;8.75;7.25;;;;;;;;4989946;28;9569;-84
2021/06/06 03:17:58;;;;;;;;;9.00;7.00;;;;;;;;4991741;28;9621;-83
2021/06/06 03:20:32;;;;;;;;;7.25;7.25;;;;;;;;4986076;28;9659;-81
2021/06/06 03:23:01;;;;;;;;;8.50;7.00;;;;;;;;4999136;28;10416;-78
2021/06/06 03:25:36;;;;;;;;;5.00;5.00;;;;;;;;5000574;28;9509;-83
2021/06/06 03:28:05;;;;;;;;;8.00;5.00;;;;;;;;5001604;28;9544;-83
2021/06/06 03:30:35;;;;;;;;;7.75;7.75;;;;;;;;5002438;28;9467;-83
2021/06/06 03:33:06;;;;;;;;;6.25;6.25;;;;;;;;5001362;28;9640;-82
2021/06/06 03:35:33;;;;;;;;;8.00;7.75;;;;;;;;4997903;28;9489;-83
2021/06/06 03:38:00;;;;;;;;;8.25;7.50;;;;;;;;5002156;28;9573;-84
2021/06/06 03:40:29;;;;;;;;;6.50;6.50;;;;;;;;4994581;28;9539;-78
2021/06/06 03:42:56;;;;;;;;;7.75;7.75;;;;;;;;5003259;28;9558;-83
2021/06/06 03:45:25;;;;;;;;;5.00;5.00;;;;;;;;5001729;28;9543;-84
2021/06/06 03:47:55;;;;;;;;;8.75;8.00;;;;;;;;5001446;28;9598;-82
2021/06/06 03:50:23;;;;;;;;;5.00;5.00;;;;;;;;4998130;28;9790;-81
2021/06/06 03:52:50;;;;;;;;;7.50;7.50;;;;;;;;5003597;28;9726;-83
2021/06/06 03:55:20;;;;;;;;;7.75;7.75;;;;;;;;4994126;28;9752;-78
2021/06/06 03:57:47;;;;;;;;;8.00;8.00;;;;;;;;5002582;28;9900;-82
2021/06/06 04:00:17;;;;;;;;;7.00;5.00;;;;;;;;5001403;28;9653;-83
2021/06/06 04:02:45;;;;;;;;;7.25;7.25;;;;;;;;4994624;28;9665;-82
2021/06/06 04:05:14;;;;;;;;;7.25;7.25;;;;;;;;5001309;28;9771;-82
2021/06/06 04:07:41;;;;;;;;;7.50;7.50;;;;;;;;5001858;28;9735;-84
2021/06/06 04:10:09;;;;;;;;;6.75;5.25;;;;;;;;4999338;28;9824;-80
2021/06/06 04:12:36;;;;;;;;;9.00;7.00;;;;;;;;5001679;28;9878;-83
2021/06/06 04:15:04;;;;;;;;;8.50;7.00;;;;;;;;4994904;28;10014;-82
2021/06/06 04:17:31;;;;;;;;;9.25;7.75;;;;;;;;5000603;28;9783;-82
2021/06/06 04:19:59;;;;;;;;;5.00;5.00;;;;;;;;4997553;28;9769;-83
2021/06/06 04:22:26;;;;;;;;;7.75;6.50;;;;;;;;5001214;28;9628;-83
2021/06/06 04:24:53;;;;;;;;;10.00;7.00;;;;;;;;5001346;28;9736;-77
2021/06/06 04:27:20;;;;;;;;;8.50;8.50;;;;;;;;5008441;28;9638;-83
2021/06/06 04:29:47;;;;;;;;;8.50;8.25;;;;;;;;4999242;28;9723;-82
2021/06/06 04:32:16;;;;;;;;;8.00;8.00;;;;;;;;5001140;28;9864;-82
2021/06/06 04:34:43;;;;;;;;;7.50;4.50;;;;;;;;5003548;28;10638;-84
2021/06/06 04:37:13;;;;;;;;;10.00;7.25;;;;;;;;5006130;28;9885;-84
2021/06/06 04:39:41;;;;;;;;;8.00;8.00;;;;;;;;5006933;28;9822;-83
2021/06/06 04:42:09;;;;;;;;;6.50;6.50;;;;;;;;5001365;28;9640;-83
2021/06/06 04:44:37;;;;;;;;;6.50;6.50;;;;;;;;5007002;28;9586;-83
2021/06/06 04:47:07;;;;;;;;;8.50;7.25;;;;;;;;5003739;28;9664;-82
2021/06/06 04:49:35;;;;;;;;;10.50;9.00;;;;;;;;5006028;28;9595;-83
2021/06/06 04:52:03;;;;;;;;;7.50;7.50;;;;;;;;5005522;28;9642;-83
2021/06/06 04:54:31;;;;;;;;;7.75;7.75;;;;;;;;5004408;28;9802;-83
2021/06/06 04:56:58;;;;;;;;;8.75;8.25;;;;;;;;5002675;28;9701;-84
2021/06/06 04:59:25;;;;;;;;;9.75;8.50;;;;;;;;5005205;28;9654;-84
2021/06/06 05:01:52;;;;;;;;;11.50;10.50;;;;;;;;5003910;28;9722;-81
2021/06/06 05:04:19;;;;;;;;;9.50;9.50;;;;;;;;5001638;28;9610;-82
2021/06/06 05:06:46;;;;;;;;;13.75;11.25;;;;;;;;5000458;28;9436;-79
2021/06/06 05:09:13;;;;;;;;;12.50;10.25;;;;;;;;4994681;28;9775;-83
2021/06/06 05:11:42;;;;;;;;;8.50;8.50;;;;;;;;4999288;28;9759;-78
2021/06/06 05:14:08;;;;;;;;;9.75;9.75;;;;;;;;5004142;28;9752;-86
2021/06/06 05:16:35;;;;;;;;;8.75;8.75;;;;;;;;5004995;28;9729;-86
2021/06/06 05:19:02;;;;;;;;;8.50;8.50;;;;;;;;5007877;28;9863;-87
2021/06/06 05:21:29;;;;;;;;;13.50;13.00;;;;;;;;5005955;28;9715;-85
2021/06/06 05:23:56;;;;;;;;;9.00;9.00;;;;;;;;5005875;28;9871;-85
2021/06/06 05:26:23;;;;;;;;;8.25;8.25;;;;;;;;5006334;28;9833;-86
2021/06/06 05:28:51;;;;;;;;;9.00;9.00;;;;;;;;5008092;28;9855;-85
2021/06/06 05:31:21;;;;;;;;;9.00;8.00;;;;;;;;5004869;28;9823;-86
2021/06/06 05:33:48;;;;;;;;;9.25;9.25;;;;;;;;5001315;28;10519;-85
2021/06/06 05:36:15;;;;;;;;;8.50;8.50;;;;;;;;5006587;28;9784;-84
2021/06/06 05:38:43;;;;;;;;;7.00;7.00;;;;;;;;4995259;28;9854;-85
2021/06/06 05:41:11;;;;;;;;;8.50;8.50;;;;;;;;5004441;28;9800;-84
2021/06/06 05:43:39;;;;;;;;;7.00;7.00;;;;;;;;5005462;28;9791;-81
2021/06/06 05:46:07;;;;;;;;;4.00;4.00;;;;;;;;5007575;28;9859;-84
2021/06/06 05:48:34;;;;;;;;;8.00;8.00;;;;;;;;5004417;28;9514;-84
2021/06/06 05:51:02;;;;;;;;;9.00;7.00;;;;;;;;5002730;28;9489;-84
2021/06/06 05:53:30;;;;;;;;;9.75;9.75;;;;;;;;5005765;28;9475;-81
2021/06/06 05:55:57;;;;;;;;;5.00;5.00;;;;;;;;5004476;28;9488;-83
2021/06/06 05:58:24;;;;;;;;;4.00;4.00;;;;;;;;5006217;28;9456;-84
2021/06/06 06:00:53;;;;;;;;;8.67;7.67;;;;;;;;5003608;28;9360;-85
2021/06/06 06:03:21;;;;;;;;;6.33;6.33;;;;;;;;5005582;28;9471;-82
2021/06/06 06:05:49;;;;;;;;;6.33;6.33;;;;;;;;5002907;28;9212;-82
2021/06/06 06:08:21;;;;;;;;;5.33;5.00;;;;;;;;5000838;28;9126;-80
2021/06/06 06:10:49;;;;;;;;;6.00;6.00;;;;;;;;5004805;28;9183;-81
2021/06/06 06:13:20;;;;;;;;;9.00;6.67;;;;;;;;5000707;28;9150;-82
2021/06/06 06:15:48;;;;;;;;;5.00;5.00;;;;;;;;5007791;28;9123;-83
2021/06/06 06:18:16;;;;;;;;;5.00;5.00;;;;;;;;5003853;28;9058;-85
2021/06/06 06:20:45;;;;;;;;;4.67;4.67;;;;;;;;5005692;28;9168;-85
2021/06/06 06:23:12;;;;;;;;;4.50;4.50;;;;;;;;5003567;28;9100;-88
2021/06/06 06:25:39;;;;;;;;;3.75;3.75;;;;;;;;5003122;28;8901;-85
2021/06/06 06:28:07;;;;;;;;;4.33;4.33;;;;;;;;5003391;28;8856;-83
2021/06/06 06:30:36;;;;;;;;;4.67;4.67;;;;;;;;4997283;28;8910;-80
2021/06/06 06:33:05;;;;;;;;;6.00;6.00;;;;;;;;4981770;28;9056;-79
2021/06/06 06:35:32;;;;;;;;;4.00;4.00;;;;;;;;4981313;28;8895;-80
2021/06/06 06:38:02;;;;;;;;;1.25;1.00;;;;;;;;4984374;28;8898;-79
2021/06/06 06:40:30;;;;;;;;;6.75;3.25;;;;;;;;4983913;28;8993;-80
2021/06/06 06:42:57;;;;;;;;;4.25;4.25;;;;;;;;4985441;28;8871;-78
2021/06/06 06:45:29;;;;;;;;;4.00;4.00;;;;;;;;4984694;28;9707;-81
2021/06/06 06:47:59;;;;;;;;;4.25;4.25;;;;;;;;4983514;28;8911;-84
2021/06/06 06:50:26;;;;;;;;;2.00;2.00;;;;;;;;4986040;28;8973;-79
2021/06/06 06:52:53;;;;;;;;;3.75;3.75;;;;;;;;4978978;28;8913;-76
2021/06/06 06:55:22;;;;;;;;;5.00;3.75;;;;;;;;4978525;28;8866;-75
2021/06/06 06:57:49;;;;;;;;;3.50;3.50;;;;;;;;4976051;28;9437;-76
2021/06/06 07:00:19;;;;;;;;;2.00;2.00;;;;;;;;4984400;28;8891;-75
2021/06/06 07:02:46;;;;;;;;;1.75;1.75;;;;;;;;4980679;28;8906;-74
2021/06/06 07:05:14;;;;;;;;;3.00;3.00;;;;;;;;4983437;28;8985;-75
2021/06/06 07:07:42;;;;;;;;;3.25;3.25;;;;;;;;4979001;28;8881;-79
2021/06/06 07:10:13;;;;;;;;;2.00;2.00;;;;;;;;4981346;28;8866;-76
2021/06/06 07:12:41;;;;;;;;;4.00;2.25;;;;;;;;4984987;28;8982;-76
2021/06/06 07:15:12;;;;;;;;;4.50;3.00;;;;;;;;4983917;28;9025;-74
2021/06/06 07:17:39;;;;;;;;;4.25;3.50;;;;;;;;4985090;28;8895;-75
2021/06/06 07:20:09;;;;;;;;;3.00;3.00;;;;;;;;4983628;28;8885;-74
2021/06/06 07:22:37;;;;;;;;;3.00;3.00;;;;;;;;4983034;28;8918;-78
2021/06/06 07:25:06;;;;;;;;;2.00;2.00;;;;;;;;4983498;28;8926;-74
2021/06/06 07:27:35;;;;;;;;;3.00;3.00;;;;;;;;4984356;28;8882;-73
2021/06/06 07:30:04;;;;;;;;;3.00;3.00;;;;;;;;4983349;28;8862;-74
2021/06/06 07:32:32;;;;;;;;;1.25;1.25;;;;;;;;4982973;28;8981;-75
2021/06/06 07:35:00;;;;;;;;;1.00;1.00;;;;;;;;4982069;28;8874;-73
2021/06/06 07:37:26;;;;;;;;;2.00;2.00;;;;;;;;4983983;28;8953;-73
2021/06/06 07:39:53;;;;;;;;;2.00;2.00;;;;;;;;4982485;28;8886;-74
2021/06/06 07:42:21;;;;;;;;;3.00;3.00;;;;;;;;4983806;28;8897;-73
2021/06/06 07:44:47;;;;;;;;;3.50;3.50;;;;;;;;4982172;28;8854;-73
2021/06/06 07:47:15;;;;;;;;;1.25;1.25;;;;;;;;4986107;28;9699;-77
2021/06/06 07:49:43;;;;;;;;;3.00;1.25;;;;;;;;4987201;28;8870;-78
2021/06/06 07:52:10;;;;;;;;;3.00;1.25;;;;;;;;4985453;28;8913;-77
2021/06/06 07:54:37;;;;;;;;;2.00;2.00;;;;;;;;4978687;28;9694;-75
2021/06/06 07:57:05;;;;;;;;;1.00;1.00;;;;;;;;4982792;28;8921;-75
2021/06/06 07:59:34;;;;;;;;;2.25;2.25;;;;;;;;4975740;28;8975;-74
2021/06/06 08:02:01;;;;;;;;;2.00;2.00;;;;;;;;4984085;28;8863;-74
2021/06/06 08:04:31;;;;;;;;;2.25;2.25;;;;;;;;4974728;28;8873;-74
2021/06/06 08:06:57;;;;;;;;;3.00;3.00;;;;;;;;4980048;28;8882;-74
2021/06/06 08:09:25;;;;;;;;;3.00;3.00;;;;;;;;4979249;28;8873;-73
2021/06/06 08:11:52;;;;;;;;;2.50;2.25;;;;;;;;4977902;28;8989;-74
2021/06/06 08:14:19;;;;;;;;;5.00;5.00;;;;;;;;4980832;28;8885;-74
2021/06/06 08:16:46;;;;;;;;;4.75;4.75;;;;;;;;4982258;28;8862;-75
2021/06/06 08:19:13;;;;;;;;;4.50;4.00;;;;;;;;4981690;28;8944;-74
2021/06/06 08:21:45;;;;;;;;;5.00;5.00;;;;;;;;4978146;28;8894;-74
2021/06/06 08:24:12;;;;;;;;;5.00;5.00;;;;;;;;4980188;28;8960;-73
2021/06/06 08:26:42;;;;;;;;;3.40;3.40;;;;;;;;4981034;28;8910;-73
2021/06/06 08:29:11;;;;;;;;;4.60;4.60;;;;;;;;4976287;28;8891;-74
2021/06/06 08:31:40;;;;;;;;;4.40;4.40;;;;;;;;4973362;28;8875;-74
2021/06/06 08:34:09;;;;;;;;;4.20;4.20;;;;;;;;4978814;28;8894;-74
2021/06/06 08:36:40;;;;;;;;;6.20;5.00;;;;;;;;4984114;28;8948;-72
2021/06/06 08:39:12;;;;;;;;;6.00;6.00;;;;;;;;4982165;28;8977;-73
2021/06/06 08:41:45;;;;;;;;;6.25;5.25;;;;;;;;4979501;28;8859;-73
2021/06/06 08:44:17;;;;;;;;;4.20;4.20;;;;;;;;4981110;28;9085;-73
2021/06/06 08:46:53;;;;;;;;;5.80;5.80;;;;;;;;4973529;28;8862;-72
2021/06/06 08:49:20;;;;;;;;;4.80;4.80;;;;;;;;4975975;28;9017;-74
2021/06/06 08:51:49;;;;;;;;;2.00;2.00;;;;;;;;4974804;28;8991;-75
2021/06/06 08:54:23;;;;;;;;;2.40;2.40;;;;;;;;4984862;28;8867;-76
2021/06/06 08:56:53;;;;;;;;;3.20;3.20;;;;;;;;4981065;28;8847;-75
2021/06/06 08:59:23;;;;;;;;;5.40;5.00;;;;;;;;4972189;28;8876;-75
2021/06/06 09:01:54;;;;;;;;;4.00;4.00;;;;;;;;4977383;28;10019;-75
2021/06/06 09:04:24;;;;;;;;;3.40;3.40;;;;;;;;4971900;28;9744;-75
2021/06/06 09:06:53;;;;;;;;;3.00;3.00;;;;;;;;4978388;28;9080;-75
2021/06/06 09:09:24;;;;;;;;;4.80;3.80;;;;;;;;4971432;28;8869;-76
2021/06/06 09:11:51;;;;;;;;;2.40;2.40;;;;;;;;4983781;28;8886;-76
2021/06/06 09:14:18;;;;;;;;;5.00;3.40;;;;;;;;4982192;28;9538;-76
2021/06/06 09:16:58;;;;;;;;;3.40;3.20;;;;;;;;4979335;28;9750;-75
2021/06/06 09:19:26;;;;;;;;;4.20;3.20;;;;;;;;4987622;28;8885;-77
2021/06/06 09:21:57;;;;;;;;;5.00;5.00;;;;;;;;4979389;28;8892;-75
2021/06/06 09:24:35;;;;;;;;;4.80;4.00;;;;;;;;4981995;28;8883;-75
2021/06/06 09:27:17;;;;;;;;;4.80;4.40;;;;;;;;4980363;28;8973;-74
2021/06/06 09:29:45;;;;;;;;;3.00;3.00;;;;;;;;4982628;28;8920;-76
2021/06/06 09:32:15;;;;;;;;;2.80;2.80;;;;;;;;4982360;28;8847;-77
2021/06/06 09:34:53;;;;;;;;;3.80;3.80;;;;;;;;4981328;28;8883;-75
2021/06/06 09:37:21;;;;;;;;;3.20;3.20;;;;;;;;4975928;28;8944;-76
2021/06/06 09:39:58;;;;;;;;;5.20;5.20;;;;;;;;4981900;28;8898;-76
2021/06/06 09:42:35;;;;;;;;;4.80;4.80;;;;;;;;4978974;28;8886;-76
2021/06/06 09:45:06;;;;;;;;;4.80;4.80;;;;;;;;4976605;28;8867;-75
2021/06/06 09:47:33;;;;;;;;;5.20;3.60;;;;;;;;4971185;28;8889;-75
2021/06/06 09:50:09;;;;;;;;;5.60;3.80;;;;;;;;4973300;28;9694;-76
2021/06/06 09:52:46;;;;;;;;;4.00;4.00;;;;;;;;4981847;28;8882;-76
2021/06/06 09:55:24;;;;;;;;;1.80;1.80;;;;;;;;4977287;28;8872;-76
2021/06/06 09:57:52;;;;;;;;;4.40;3.60;;;;;;;;4983794;28;8885;-78
2021/06/06 10:00:31;;;;;;;;;3.80;3.80;;;;;;;;4973368;28;8897;-77
2021/06/06 10:02:59;;;;;;;;;2.80;2.80;;;;;;;;4977852;28;8885;-77
2021/06/06 10:05:30;;;;;;;;;4.00;4.00;;;;;;;;4984231;28;8875;-76
2021/06/06 10:08:00;;;;;;;;;3.20;3.20;;;;;;;;4985771;28;8937;-76
2021/06/06 10:10:32;;;;;;;;;6.60;6.60;;;;;;;;4985067;28;8877;-77
2021/06/06 10:13:03;;;;;;;;;5.80;4.20;;;;;;;;4982553;28;9017;-77
2021/06/06 10:15:43;;;;;;;;;4.20;4.20;;;;;;;;4986149;28;8997;-77
2021/06/06 10:18:14;;;;;;;;;3.80;3.80;;;;;;;;4991828;28;8872;-76
2021/06/06 10:20:42;;;;;;;;;6.20;6.20;;;;;;;;4987801;28;8891;-77
2021/06/06 10:23:13;;;;;;;;;4.20;4.00;;;;;;;;4984256;28;8866;-77
2021/06/06 10:25:47;;;;;;;;;6.00;5.40;;;;;;;;4984957;28;8859;-76
2021/06/06 10:28:18;;;;;;;;;3.80;3.80;;;;;;;;4985987;28;8882;-77
2021/06/06 10:30:49;;;;;;;;;4.80;4.80;;;;;;;;4983972;28;9686;-77
2021/06/06 10:33:22;;;;;;;;;5.00;5.00;;;;;;;;4985982;28;8896;-77
2021/06/06 10:35:50;;;;;;;;;10.00;10.00;;;;;;;;4985726;28;8909;-77
2021/06/06 10:38:17;;;;;;;;;4.00;4.00;;;;;;;;4985465;28;8874;-76
2021/06/06 10:40:47;;;;;;;;;4.40;4.40;;;;;;;;4985169;28;8879;-76
2021/06/06 10:43:25;;;;;;;;;12.80;11.40;;;;;;;;4984868;28;9000;-77
2021/06/06 10:46:00;;;;;;;;;5.00;5.00;;;;;;;;4972993;28;8859;-78
2021/06/06 10:48:31;;;;;;;;;5.00;5.00;;;;;;;;4982826;28;9009;-75
2021/06/06 10:51:09;;;;;;;;;8.00;6.00;;;;;;;;4985644;28;8847;-76
2021/06/06 10:53:36;;;;;;;;;7.60;7.60;;;;;;;;4986017;28;8886;-78
2021/06/06 10:56:13;;;;;;;;;6.60;6.60;;;;;;;;4984637;28;8897;-76
2021/06/06 10:58:45;;;;;;;;;7.00;7.00;;;;;;;;4983681;28;8924;-76
2021/06/06 11:01:27;;;;;;;;;5.40;5.40;;;;;;;;4983541;28;8807;-76
2021/06/06 11:04:08;;;;;;;;;3.20;3.20;;;;;;;;4985490;28;8993;-76
2021/06/06 11:06:37;;;;;;;;;3.60;3.60;;;;;;;;4984157;28;8977;-76
2021/06/06 11:09:05;;;;;;;;;5.80;3.80;;;;;;;;4985251;28;9029;-77
2021/06/06 11:11:35;;;;;;;;;5.40;5.40;;;;;;;;4983683;28;9057;-77
2021/06/06 11:14:16;;;;;;;;;6.20;4.20;;;;;;;;4971782;28;9012;-76
2021/06/06 11:16:45;;;;;;;;;5.20;5.20;;;;;;;;4980408;28;9564;-76
2021/06/06 11:19:15;;;;;;;;;7.40;7.40;;;;;;;;4984640;28;8896;-77
2021/06/06 11:21:51;;;;;;;;;17.60;16.00;;;;;;;;4984638;28;9576;-76
2021/06/06 11:24:31;;;;;;;;;13.20;13.20;;;;;;;;4985145;28;8851;-77
2021/06/06 11:27:31;;;;;;;;;27.60;26.00;;;;;;;;4983111;28;9014;-76
2021/06/06 11:30:10;;;;;;;;;12.40;11.00;;;;;;;;4975090;28;8996;-77
2021/06/06 11:32:56;;;;;;;;;5.20;5.20;;;;;;;;4983878;28;8834;-77
2021/06/06 11:35:31;;;;;;;;;5.80;4.80;;;;;;;;4983877;28;8989;-76
2021/06/06 11:38:00;;;;;;;;;7.00;7.00;;;;;;;;4985140;28;8883;-77
2021/06/06 11:40:39;;;;;;;;;4.00;4.00;;;;;;;;4982770;28;8909;-75
2021/06/06 11:43:22;;;;;;;;;4.00;2.60;;;;;;;;4989855;28;8896;-76
2021/06/06 11:45:54;;;;;;;;;5.00;5.00;;;;;;;;4989873;28;8869;-76
2021/06/06 11:48:31;;;;;;;;;5.00;5.00;;;;;;;;4984060;28;8891;-75
2021/06/06 11:51:00;;;;;;;;;6.60;6.60;;;;;;;;4985346;28;8863;-76
2021/06/06 11:53:31;;;;;;;;;5.00;5.00;;;;;;;;4981278;28;8870;-76
2021/06/06 11:56:15;;;;;;;;;4.00;4.00;;;;;;;;5000807;28;9035;-76
2021/06/06 11:58:47;;;;;;;;;5.00;5.00;;;;;;;;4991670;28;8864;-76
2021/06/06 12:01:16;;;;;;;;;5.00;5.00;;;;;;;;5000227;28;8928;-76
2021/06/06 12:03:45;;;;;;;;;3.40;3.40;;;;;;;;4985283;28;8860;-77
2021/06/06 12:06:26;;;;;;;;;5.00;5.00;;;;;;;;5000349;28;8875;-76
2021/06/06 12:08:54;;;;;;;;;4.80;4.00;;;;;;;;4999726;28;8954;-77
2021/06/06 12:11:29;;;;;;;;;5.00;5.00;;;;;;;;4999709;28;8916;-75
2021/06/06 12:14:10;;;;;;;;;9.60;4.40;;;;;;;;5000394;28;8990;-76
2021/06/06 12:16:44;;;;;;;;;4.40;4.40;;;;;;;;4986993;28;8929;-76
2021/06/06 12:19:12;;;;;;;;;5.00;3.40;;;;;;;;5011327;28;8967;-76
2021/06/06 12:21:42;;;;;;;;;5.00;5.00;;;;;;;;5000656;28;8984;-76
2021/06/06 12:24:12;;;;;;;;;3.60;3.60;;;;;;;;4994712;28;8989;-77
2021/06/06 12:26:42;;;;;;;;;4.80;4.80;;;;;;;;4983836;28;8890;-76
2021/06/06 12:29:12;;;;;;;;;4.00;4.00;;;;;;;;4981982;28;8950;-76
2021/06/06 12:31:41;;;;;;;;;5.00;4.00;;;;;;;;4982394;28;8823;-76
2021/06/06 12:34:20;;;;;;;;;3.00;3.00;;;;;;;;4985373;28;9013;-78
2021/06/06 12:36:49;;;;;;;;;4.00;4.00;;;;;;;;4982558;28;8866;-76
2021/06/06 12:39:18;;;;;;;;;4.20;4.20;;;;;;;;4984016;28;8901;-77
2021/06/06 12:41:48;;;;;;;;;6.80;5.80;;;;;;;;4982543;28;9026;-77
2021/06/06 12:44:17;;;;;;;;;6.00;6.00;;;;;;;;4982687;28;9641;-75
2021/06/06 12:46:50;;;;;;;;;7.40;7.00;;;;;;;;4986056;28;8886;-76
2021/06/06 12:49:29;;;;;;;;;3.80;3.80;;;;;;;;4985910;28;8910;-76
2021/06/06 12:51:56;;;;;;;;;5.00;5.00;;;;;;;;4987273;28;8866;-77
2021/06/06 12:54:27;;;;;;;;;4.20;4.20;;;;;;;;4986717;28;8870;-76
2021/06/06 12:57:03;;;;;;;;;4.20;3.40;;;;;;;;4987452;28;8875;-77
2021/06/06 12:59:33;;;;;;;;;2.40;2.40;;;;;;;;4987410;28;8863;-77
2021/06/06 13:02:10;;;;;;;;;5.40;4.00;;;;;;;;4986004;28;8850;-76
2021/06/06 13:04:38;;;;;;;;;3.40;3.40;;;;;;;;4987469;28;8933;-76
2021/06/06 13:07:24;;;;;;;;;3.00;3.00;;;;;;;;4986074;28;8902;-77
2021/06/06 13:09:53;;;;;;;;;3.00;3.00;;;;;;;;4973112;28;8983;-76
2021/06/06 13:12:27;;;;;;;;;3.60;3.60;;;;;;;;4983503;28;8890;-76
2021/06/06 13:15:00;;;;;;;;;4.20;2.60;;;;;;;;4980027;28;8889;-76
2021/06/06 13:17:36;;;;;;;;;3.20;3.20;;;;;;;;4976848;28;8880;-77
2021/06/06 13:20:23;;;;;;;;;3.60;3.60;;;;;;;;4982486;28;8889;-78
2021/06/06 13:23:04;;;;;;;;;5.60;2.20;;;;;;;;4978408;28;8897;-79
2021/06/06 13:25:38;;;;;;;;;2.00;2.00;;;;;;;;4978011;28;8859;-77
2021/06/06 13:28:20;;;;;;;;;2.80;2.80;;;;;;;;4978841;28;8881;-77
2021/06/06 13:30:52;;;;;;;;;3.00;3.00;;;;;;;;4979079;28;9605;-79
2021/06/06 13:33:22;;;;;;;;;1.40;1.40;;;;;;;;4976020;28;8905;-78
2021/06/06 13:35:51;;;;;;;;;4.00;2.00;;;;;;;;4977529;28;8870;-78
2021/06/06 13:38:19;;;;;;;;;2.40;2.40;;;;;;;;4982504;28;8875;-79
2021/06/06 13:40:48;;;;;;;;;2.80;2.80;;;;;;;;4984669;28;8992;-79
2021/06/06 13:43:16;;;;;;;;;2.40;2.40;;;;;;;;4985154;28;8850;-79
2021/06/06 13:45:44;;;;;;;;;3.20;3.20;;;;;;;;4985036;28;8886;-79
2021/06/06 13:48:15;;;;;;;;;3.00;3.00;;;;;;;;4980582;28;8923;-79
2021/06/06 13:50:43;;;;;;;;;4.60;2.80;;;;;;;;4982570;28;8879;-78
2021/06/06 13:53:12;;;;;;;;;3.00;3.00;;;;;;;;4978400;28;8857;-75
2021/06/06 13:55:40;;;;;;;;;4.40;4.40;;;;;;;;4980866;28;8968;-76
2021/06/06 13:58:08;;;;;;;;;3.00;3.00;;;;;;;;4980460;28;8876;-80
2021/06/06 14:00:37;;;;;;;;;2.40;2.00;;;;;;;;4982113;28;8806;-77
2021/06/06 14:03:07;;;;;;;;;3.40;3.40;;;;;;;;4977440;28;8866;-77
2021/06/06 14:05:36;;;;;;;;;3.20;3.20;;;;;;;;4981684;28;8875;-78
2021/06/06 14:08:04;;;;;;;;;3.00;3.00;;;;;;;;4980817;28;9028;-77
2021/06/06 14:10:36;;;;;;;;;3.00;3.00;;;;;;;;4984139;28;8866;-79
2021/06/06 14:13:05;;;;;;;;;4.80;4.80;;;;;;;;4974196;28;9040;-78
2021/06/06 14:15:32;;;;;;;;;7.20;5.80;;;;;;;;4982963;28;8953;-79
2021/06/06 14:17:59;;;;;;;;;5.60;5.60;;;;;;;;4984370;28;8993;-79
2021/06/06 14:20:27;;;;;;;;;4.80;4.80;;;;;;;;4981819;28;9037;-80
2021/06/06 14:22:56;;;;;;;;;6.00;4.00;;;;;;;;4974423;28;8947;-80
2021/06/06 14:25:27;;;;;;;;;2.80;2.80;;;;;;;;4974636;28;8968;-81
2021/06/06 14:27:55;;;;;;;;;2.80;2.80;;;;;;;;4978870;28;8890;-79
2021/06/06 14:30:25;;;;;;;;;5.00;5.00;;;;;;;;4979647;28;8902;-80
2021/06/06 14:32:52;;;;;;;;;4.80;4.80;;;;;;;;4977712;28;8987;-79
2021/06/06 14:35:19;;;;;;;;;4.00;4.00;;;;;;;;4978175;28;8855;-79
2021/06/06 14:37:46;;;;;;;;;3.40;3.40;;;;;;;;4974809;28;8905;-84
2021/06/06 14:40:18;;;;;;;;;3.20;3.20;;;;;;;;4979685;28;8853;-78
2021/06/06 14:42:45;;;;;;;;;3.80;2.80;;;;;;;;4980482;28;8879;-78
2021/06/06 14:45:16;;;;;;;;;6.20;5.00;;;;;;;;4983586;28;8855;-76
2021/06/06 14:47:43;;;;;;;;;4.00;4.00;;;;;;;;4980259;28;8902;-79
2021/06/06 14:50:11;;;;;;;;;3.20;3.20;;;;;;;;4983414;28;8989;-80
2021/06/06 14:52:39;;;;;;;;;3.20;3.20;;;;;;;;4983082;28;9637;-81
2021/06/06 14:55:08;;;;;;;;;3.60;3.60;;;;;;;;4981362;28;9558;-77
2021/06/06 14:57:38;;;;;;;;;3.40;3.40;;;;;;;;4977700;28;8880;-77
2021/06/06 15:00:07;;;;;;;;;3.00;3.00;;;;;;;;4974065;28;10076;-79
2021/06/06 15:02:34;;;;;;;;;2.00;2.00;;;;;;;;4977486;28;9013;-76
2021/06/06 15:05:01;;;;;;;;;2.00;2.00;;;;;;;;4982046;28;9013;-80
2021/06/06 15:07:29;;;;;;;;;4.40;3.80;;;;;;;;4982498;28;9276;-78
2021/06/06 15:09:55;;;;;;;;;3.00;3.00;;;;;;;;4976287;28;8985;-80
2021/06/06 15:12:22;;;;;;;;;3.00;3.00;;;;;;;;4979251;28;8909;-80